createdAt,value
2018-02-23T00:00:40.284Z,1020.11
2018-02-23T00:01:50.243Z,1020.09
2018-02-23T00:03:00.201Z,1020.1
2018-02-23T00:04:09.892Z,1020.12
2018-02-23T00:05:19.874Z,1020.1
2018-02-23T00:06:29.584Z,1020.14
2018-02-23T00:07:39.300Z,1020.15
2018-02-23T00:08:49.192Z,1020.14
2018-02-23T00:09:59.150Z,1020.17
2018-02-23T00:11:09.115Z,1020.12
2018-02-23T00:12:18.804Z,1020.1
2018-02-23T00:13:28.759Z,1020.17
2018-02-23T00:14:38.733Z,1020.13
2018-02-23T00:15:48.436Z,1020.16
2018-02-23T00:16:58.391Z,1020.14
2018-02-23T00:18:08.085Z,1020.11
2018-02-23T00:19:17.772Z,1020.09
2018-02-23T00:20:27.466Z,1020.06
2018-02-23T00:21:37.159Z,1020.01
2018-02-23T00:22:47.122Z,1020
2018-02-23T00:23:57.092Z,1020
2018-02-23T00:25:06.535Z,1020
2018-02-23T00:26:16.233Z,1020.03
2018-02-23T00:27:26.184Z,1020.04
2018-02-23T00:28:35.885Z,1020.04
2018-02-23T00:29:45.837Z,1019.99
2018-02-23T00:30:55.799Z,1019.99
2018-02-23T00:32:05.752Z,1020
2018-02-23T00:33:15.722Z,1020.04
2018-02-23T00:34:25.417Z,1019.97
2018-02-23T00:35:35.380Z,1019.99
2018-02-23T00:36:45.368Z,1020.01
2018-02-23T00:37:55.217Z,1020
2018-02-23T00:39:05.165Z,1019.96
2018-02-23T00:40:15.128Z,1019.98
2018-02-23T00:41:25.081Z,1019.95
2018-02-23T00:42:34.781Z,1019.93
2018-02-23T00:43:44.746Z,1019.96
2018-02-23T00:44:54.177Z,1019.96
2018-02-23T00:46:04.442Z,1020.01
2018-02-23T00:47:14.140Z,1020.01
2018-02-23T00:48:23.316Z,1020.04
2018-02-23T00:49:33.015Z,1020.02
2018-02-23T00:50:42.966Z,1020.07
2018-02-23T00:51:52.930Z,1020.06
2018-02-23T00:53:02.896Z,1020.04
2018-02-23T00:54:12.851Z,1020.05
2018-02-23T00:55:22.801Z,1020.08
2018-02-23T00:56:32.745Z,1020.02
2018-02-23T00:57:42.436Z,1020.02
2018-02-23T00:58:52.136Z,1020.02
2018-02-23T01:00:02.085Z,1019.98
2018-02-23T01:01:11.834Z,1019.99
2018-02-23T01:02:21.529Z,1019.93
2018-02-23T01:03:31.220Z,1020.01
2018-02-23T01:04:41.172Z,1019.98
2018-02-23T01:05:50.895Z,1019.95
2018-02-23T01:07:00.333Z,1019.94
2018-02-23T01:08:10.037Z,1019.98
2018-02-23T01:09:19.475Z,1019.99
2018-02-23T01:10:29.170Z,1019.92
2018-02-23T01:11:39.147Z,1019.99
2018-02-23T01:12:49.114Z,1019.97
2018-02-23T01:13:58.809Z,1019.97
2018-02-23T01:15:07.984Z,1019.92
2018-02-23T01:16:17.683Z,1019.9
2018-02-23T01:17:27.635Z,1019.93
2018-02-23T01:18:37.344Z,1019.92
2018-02-23T01:19:47.037Z,1019.95
2018-02-23T01:20:56.994Z,1019.99
2018-02-23T01:22:06.426Z,1019.94
2018-02-23T01:23:15.344Z,1019.93
2018-02-23T01:24:25.039Z,1019.94
2018-02-23T01:25:34.725Z,1019.96
2018-02-23T01:26:44.416Z,1019.93
2018-02-23T01:27:54.365Z,1019.92
2018-02-23T01:29:04.046Z,1019.98
2018-02-23T01:30:14.000Z,1019.95
2018-02-23T01:31:23.950Z,1019.92
2018-02-23T01:32:33.640Z,1019.9
2018-02-23T01:33:43.069Z,1019.9
2018-02-23T01:34:52.761Z,1019.9
2018-02-23T01:36:02.714Z,1019.91
2018-02-23T01:37:12.136Z,1019.89
2018-02-23T01:38:21.832Z,1019.9
2018-02-23T01:39:31.527Z,1019.87
2018-02-23T01:40:41.481Z,1019.88
2018-02-23T01:41:51.437Z,1019.88
2018-02-23T01:43:01.393Z,1019.9
2018-02-23T01:44:11.080Z,1019.95
2018-02-23T01:45:20.526Z,1019.91
2018-02-23T01:46:30.476Z,1019.91
2018-02-23T01:47:40.431Z,1019.89
2018-02-23T01:48:50.381Z,1019.95
2018-02-23T01:50:00.080Z,1019.87
2018-02-23T01:51:09.527Z,1019.89
2018-02-23T01:52:19.234Z,1019.91
2018-02-23T01:53:29.197Z,1019.85
2018-02-23T01:54:38.894Z,1019.87
2018-02-23T01:55:48.650Z,1019.85
2018-02-23T01:56:58.338Z,1019.89
2018-02-23T01:58:07.785Z,1019.86
2018-02-23T01:59:17.488Z,1019.89
2018-02-23T02:00:27.201Z,1019.89
2018-02-23T02:01:36.639Z,1019.89
2018-02-23T02:02:46.081Z,1019.9
2018-02-23T02:03:56.079Z,1019.84
2018-02-23T02:05:05.507Z,1019.8
2018-02-23T02:06:14.942Z,1019.85
2018-02-23T02:07:24.624Z,1019.81
2018-02-23T02:08:34.057Z,1019.8
2018-02-23T02:09:43.758Z,1019.79
2018-02-23T02:10:53.710Z,1019.79
2018-02-23T02:12:03.400Z,1019.79
2018-02-23T02:13:13.356Z,1019.81
2018-02-23T02:14:23.069Z,1019.83
2018-02-23T02:15:32.756Z,1019.79
2018-02-23T02:16:42.706Z,1019.79
2018-02-23T02:17:52.423Z,1019.77
2018-02-23T02:19:01.857Z,1019.79
2018-02-23T02:20:11.808Z,1019.84
2018-02-23T02:21:21.505Z,1019.83
2018-02-23T02:22:31.458Z,1019.82
2018-02-23T02:23:41.420Z,1019.8
2018-02-23T02:24:50.858Z,1019.79
2018-02-23T02:26:00.558Z,1019.8
2018-02-23T02:27:10.512Z,1019.74
2018-02-23T02:28:20.462Z,1019.81
2018-02-23T02:29:30.452Z,1019.77
2018-02-23T02:30:39.620Z,1019.76
2018-02-23T02:31:49.591Z,1019.75
2018-02-23T02:32:59.287Z,1019.74
2018-02-23T02:34:08.210Z,1019.7
2018-02-23T02:35:18.170Z,1019.7
2018-02-23T02:36:27.881Z,1019.71
2018-02-23T02:37:37.634Z,1019.75
2018-02-23T02:38:47.605Z,1019.73
2018-02-23T02:39:57.319Z,1019.73
2018-02-23T02:41:06.742Z,1019.76
2018-02-23T02:42:16.709Z,1019.71
2018-02-23T02:43:26.422Z,1019.73
2018-02-23T02:44:36.396Z,1019.7
2018-02-23T02:45:45.856Z,1019.74
2018-02-23T02:46:55.562Z,1019.71
2018-02-23T02:48:05.266Z,1019.68
2018-02-23T02:49:14.969Z,1019.66
2018-02-23T02:50:24.150Z,1019.68
2018-02-23T02:51:33.615Z,1019.67
2018-02-23T02:52:43.059Z,1019.69
2018-02-23T02:53:52.748Z,1019.71
2018-02-23T02:55:02.702Z,1019.72
2018-02-23T02:56:12.414Z,1019.7
2018-02-23T02:57:22.123Z,1019.78
2018-02-23T02:58:31.309Z,1019.76
2018-02-23T02:59:40.744Z,1019.73
2018-02-23T03:00:50.175Z,1019.75
2018-02-23T03:01:59.856Z,1019.75
2018-02-23T03:03:09.032Z,1019.77
2018-02-23T03:04:18.996Z,1019.74
2018-02-23T03:05:28.700Z,1019.76
2018-02-23T03:06:38.131Z,1019.72
2018-02-23T03:07:48.097Z,1019.74
2018-02-23T03:08:57.814Z,1019.76
2018-02-23T03:10:07.783Z,1019.78
2018-02-23T03:11:17.735Z,1019.79
2018-02-23T03:12:27.681Z,1019.81
2018-02-23T03:13:37.372Z,1019.82
2018-02-23T03:14:47.330Z,1019.82
2018-02-23T03:15:57.355Z,1019.81
2018-02-23T03:17:07.040Z,1019.83
2018-02-23T03:18:16.729Z,1019.82
2018-02-23T03:19:26.679Z,1019.84
2018-02-23T03:20:36.370Z,1019.85
2018-02-23T03:21:46.059Z,1019.84
2018-02-23T03:22:56.019Z,1019.84
2018-02-23T03:24:05.730Z,1019.77
2018-02-23T03:25:15.171Z,1019.79
2018-02-23T03:26:24.614Z,1019.76
2018-02-23T03:27:34.306Z,1019.68
2018-02-23T03:28:44.250Z,1019.68
2018-02-23T03:29:54.233Z,1019.69
2018-02-23T03:31:03.936Z,1019.64
2018-02-23T03:32:13.389Z,1019.63
2018-02-23T03:33:23.099Z,1019.69
2018-02-23T03:34:32.549Z,1019.66
2018-02-23T03:35:42.510Z,1019.73
2018-02-23T03:36:52.462Z,1019.71
2018-02-23T03:38:02.412Z,1019.7
2018-02-23T03:39:12.100Z,1019.74
2018-02-23T03:40:21.544Z,1019.73
2018-02-23T03:41:31.499Z,1019.76
2018-02-23T03:42:40.689Z,1019.75
2018-02-23T03:43:50.697Z,1019.79
2018-02-23T03:45:00.401Z,1019.75
2018-02-23T03:46:10.341Z,1019.8
2018-02-23T03:47:20.284Z,1019.83
2018-02-23T03:48:30.240Z,1019.83
2018-02-23T03:49:40.190Z,1019.86
2018-02-23T03:50:49.878Z,1019.91
2018-02-23T03:51:59.822Z,1019.93
2018-02-23T03:53:09.249Z,1019.91
2018-02-23T03:54:18.938Z,1019.91
2018-02-23T03:55:28.895Z,1019.95
2018-02-23T03:56:38.369Z,1019.92
2018-02-23T03:57:48.186Z,1019.92
2018-02-23T03:58:57.891Z,1019.95
2018-02-23T04:00:07.324Z,1019.96
2018-02-23T04:01:16.755Z,1019.97
2018-02-23T04:02:26.465Z,1020.03
2018-02-23T04:03:36.417Z,1019.96
2018-02-23T04:04:45.586Z,1019.99
2018-02-23T04:05:55.018Z,1019.96
2018-02-23T04:07:04.698Z,1019.99
2018-02-23T04:08:14.649Z,1020.01
2018-02-23T04:09:24.606Z,1019.96
2018-02-23T04:10:34.559Z,1020
2018-02-23T04:11:44.515Z,1019.94
2018-02-23T04:12:54.485Z,1019.94
2018-02-23T04:14:04.435Z,1019.99
2018-02-23T04:15:14.394Z,1019.99
2018-02-23T04:16:23.825Z,1020
2018-02-23T04:17:33.772Z,1019.98
2018-02-23T04:18:43.468Z,1020.01
2018-02-23T04:19:53.200Z,1020
2018-02-23T04:21:02.380Z,1019.99
2018-02-23T04:22:12.333Z,1020.07
2018-02-23T04:23:22.067Z,1020.02
2018-02-23T04:24:32.033Z,1020.04
2018-02-23T04:25:41.982Z,1020.04
2018-02-23T04:26:51.972Z,1020.02
2018-02-23T04:28:01.924Z,1019.99
2018-02-23T04:29:11.879Z,1019.99
2018-02-23T04:30:21.581Z,1020.02
2018-02-23T04:31:31.531Z,1020.05
2018-02-23T04:32:41.487Z,1020.01
2018-02-23T04:33:51.430Z,1020.02
2018-02-23T04:35:00.870Z,1020.03
2018-02-23T04:36:10.310Z,1020.02
2018-02-23T04:37:19.495Z,1020.02
2018-02-23T04:38:29.441Z,1020.02
2018-02-23T04:39:39.393Z,1020.02
2018-02-23T04:40:48.584Z,1020.06
2018-02-23T04:41:58.271Z,1020.07
2018-02-23T04:43:07.980Z,1020.03
2018-02-23T04:44:17.924Z,1020.07
2018-02-23T04:45:27.626Z,1020.1
2018-02-23T04:46:37.315Z,1020.09
2018-02-23T04:47:46.750Z,1020.08
2018-02-23T04:48:56.710Z,1020.15
2018-02-23T04:50:06.649Z,1020.1
2018-02-23T04:51:16.325Z,1020.1
2018-02-23T04:52:25.498Z,1020.13
2018-02-23T04:53:35.452Z,1020.15
2018-02-23T04:54:45.399Z,1020.11
2018-02-23T04:55:54.846Z,1020.14
2018-02-23T04:57:04.879Z,1020.11
2018-02-23T04:58:14.574Z,1020.2
2018-02-23T04:59:24.301Z,1020.22
2018-02-23T05:00:33.991Z,1020.24
2018-02-23T05:01:43.958Z,1020.19
2018-02-23T05:02:53.403Z,1020.25
2018-02-23T05:04:03.357Z,1020.2
2018-02-23T05:05:13.040Z,1020.28
2018-02-23T05:06:22.995Z,1020.27
2018-02-23T05:07:32.695Z,1020.29
2018-02-23T05:08:42.385Z,1020.32
2018-02-23T05:09:52.099Z,1020.34
2018-02-23T05:11:02.062Z,1020.28
2018-02-23T05:12:11.494Z,1020.31
2018-02-23T05:13:20.928Z,1020.3
2018-02-23T05:14:30.870Z,1020.28
2018-02-23T05:15:40.820Z,1020.28
2018-02-23T05:16:50.767Z,1020.25
2018-02-23T05:18:00.218Z,1020.2
2018-02-23T05:19:09.914Z,1020.21
2018-02-23T05:20:19.882Z,1020.2
2018-02-23T05:21:29.836Z,1020.15
2018-02-23T05:22:39.282Z,1020.23
2018-02-23T05:23:48.983Z,1020.26
2018-02-23T05:24:58.419Z,1020.3
2018-02-23T05:26:08.130Z,1020.31
2018-02-23T05:27:18.079Z,1020.38
2018-02-23T05:28:27.766Z,1020.35
2018-02-23T05:29:37.719Z,1020.32
2018-02-23T05:30:47.739Z,1020.31
2018-02-23T05:31:57.435Z,1020.3
2018-02-23T05:33:07.388Z,1020.34
2018-02-23T05:34:17.348Z,1020.3
2018-02-23T05:35:27.034Z,1020.34
2018-02-23T05:36:36.494Z,1020.37
2018-02-23T05:37:46.448Z,1020.36
2018-02-23T05:38:56.148Z,1020.34
2018-02-23T05:40:05.847Z,1020.35
2018-02-23T05:41:15.539Z,1020.35
2018-02-23T05:42:25.503Z,1020.35
2018-02-23T05:43:35.513Z,1020.33
2018-02-23T05:44:45.489Z,1020.37
2018-02-23T05:45:55.459Z,1020.38
2018-02-23T05:47:05.184Z,1020.41
2018-02-23T05:48:14.622Z,1020.39
2018-02-23T05:49:24.582Z,1020.36
2018-02-23T05:50:34.282Z,1020.36
2018-02-23T05:51:43.457Z,1020.4
2018-02-23T05:52:53.412Z,1020.41
2018-02-23T05:54:03.106Z,1020.46
2018-02-23T05:55:13.047Z,1020.49
2018-02-23T05:56:23.004Z,1020.47
2018-02-23T05:57:32.449Z,1020.47
2018-02-23T05:58:42.403Z,1020.49
2018-02-23T05:59:51.831Z,1020.5
2018-02-23T06:01:01.700Z,1020.47
2018-02-23T06:02:11.414Z,1020.51
2018-02-23T06:03:20.837Z,1020.52
2018-02-23T06:04:30.533Z,1020.47
2018-02-23T06:05:40.468Z,1020.53
2018-02-23T06:06:50.167Z,1020.52
2018-02-23T06:07:59.608Z,1020.55
2018-02-23T06:09:09.302Z,1020.61
2018-02-23T06:10:19.243Z,1020.57
2018-02-23T06:11:29.205Z,1020.63
2018-02-23T06:12:38.897Z,1020.68
2018-02-23T06:13:48.859Z,1020.67
2018-02-23T06:14:58.573Z,1020.73
2018-02-23T06:16:08.534Z,1020.73
2018-02-23T06:17:17.953Z,1020.73
2018-02-23T06:18:27.677Z,1020.7
2018-02-23T06:19:37.105Z,1020.67
2018-02-23T06:20:46.805Z,1020.69
2018-02-23T06:21:56.244Z,1020.69
2018-02-23T06:23:06.203Z,1020.66
2018-02-23T06:24:16.158Z,1020.68
2018-02-23T06:25:26.108Z,1020.66
2018-02-23T06:26:36.063Z,1020.7
2018-02-23T06:27:46.031Z,1020.73
2018-02-23T06:28:55.215Z,1020.75
2018-02-23T06:30:05.171Z,1020.75
2018-02-23T06:31:14.882Z,1020.76
2018-02-23T06:32:24.590Z,1020.73
2018-02-23T06:33:34.304Z,1020.76
2018-02-23T06:34:44.262Z,1020.76
2018-02-23T06:35:54.216Z,1020.82
2018-02-23T06:37:03.921Z,1020.83
2018-02-23T06:38:13.869Z,1020.91
2018-02-23T06:39:23.310Z,1020.9
2018-02-23T06:40:33.016Z,1020.93
2018-02-23T06:41:42.971Z,1020.88
2018-02-23T06:42:52.654Z,1020.89
2018-02-23T06:44:02.616Z,1020.88
2018-02-23T06:45:12.313Z,1020.91
2018-02-23T06:46:22.034Z,1020.9
2018-02-23T06:47:32.003Z,1020.89
2018-02-23T06:48:41.700Z,1020.93
2018-02-23T06:49:51.141Z,1020.91
2018-02-23T06:51:00.848Z,1020.94
2018-02-23T06:52:10.795Z,1020.96
2018-02-23T06:53:20.244Z,1020.97
2018-02-23T06:54:30.230Z,1020.99
2018-02-23T06:55:39.944Z,1021
2018-02-23T06:56:49.648Z,1021.06
2018-02-23T06:57:59.627Z,1021.03
2018-02-23T06:59:09.615Z,1021.04
2018-02-23T07:00:19.618Z,1021.08
2018-02-23T07:01:29.064Z,1021.03
2018-02-23T07:02:38.249Z,1021.05
2018-02-23T07:03:47.950Z,1021.07
2018-02-23T07:04:57.731Z,1021.09
2018-02-23T07:06:07.448Z,1021.09
2018-02-23T07:07:17.416Z,1021.07
2018-02-23T07:08:27.144Z,1021.09
2018-02-23T07:09:37.106Z,1021.14
2018-02-23T07:10:46.808Z,1021.08
2018-02-23T07:11:56.855Z,1021.09
2018-02-23T07:13:06.551Z,1021.1
2018-02-23T07:14:16.252Z,1021.11
2018-02-23T07:15:26.199Z,1021.03
2018-02-23T07:16:35.895Z,1021.11
2018-02-23T07:17:45.349Z,1021.08
2018-02-23T07:18:55.515Z,1021.07
2018-02-23T07:20:05.239Z,1021.11
2018-02-23T07:21:14.953Z,1021.12
2018-02-23T07:22:24.388Z,1021.15
2018-02-23T07:23:34.355Z,1021.17
2018-02-23T07:24:43.807Z,1021.2
2018-02-23T07:25:53.764Z,1021.19
2018-02-23T07:27:03.768Z,1021.19
2018-02-23T07:28:13.485Z,1021.21
2018-02-23T07:29:22.714Z,1021.2
2018-02-23T07:30:32.429Z,1021.22
2018-02-23T07:31:41.944Z,1021.2
2018-02-23T07:32:51.468Z,1021.19
2018-02-23T07:34:01.426Z,1021.2
2018-02-23T07:35:10.861Z,1021.22
2018-02-23T07:36:20.312Z,1021.2
2018-02-23T07:37:30.281Z,1021.24
2018-02-23T07:38:40.013Z,1021.3
2018-02-23T07:39:49.745Z,1021.3
2018-02-23T07:40:59.699Z,1021.3
2018-02-23T07:42:09.673Z,1021.3
2018-02-23T07:43:19.637Z,1021.27
2018-02-23T07:44:29.338Z,1021.29
2018-02-23T07:45:38.892Z,1021.29
2018-02-23T07:46:48.619Z,1021.29
2018-02-23T07:47:58.089Z,1021.28
2018-02-23T07:49:07.862Z,1021.25
2018-02-23T07:50:17.580Z,1021.3
2018-02-23T07:51:27.057Z,1021.34
2018-02-23T07:52:37.105Z,1021.3
2018-02-23T07:53:47.108Z,1021.32
2018-02-23T07:54:56.802Z,1021.35
2018-02-23T07:56:06.765Z,1021.36
2018-02-23T07:57:16.741Z,1021.39
2018-02-23T07:58:26.713Z,1021.4
2018-02-23T07:59:36.160Z,1021.38
2018-02-23T08:00:45.624Z,1021.45
2018-02-23T08:01:55.095Z,1021.43
2018-02-23T08:03:04.837Z,1021.43
2018-02-23T08:04:14.811Z,1021.48
2018-02-23T08:05:24.564Z,1021.5
2018-02-23T08:06:34.570Z,1021.56
2018-02-23T08:07:44.557Z,1021.54
2018-02-23T08:08:54.626Z,1021.53
2018-02-23T08:10:04.637Z,1021.56
2018-02-23T08:11:14.605Z,1021.48
2018-02-23T08:12:24.386Z,1021.53
2018-02-23T08:13:34.365Z,1021.49
2018-02-23T08:14:44.104Z,1021.56
2018-02-23T08:15:54.108Z,1021.58
2018-02-23T08:17:03.575Z,1021.61
2018-02-23T08:18:13.283Z,1021.56
2018-02-23T08:19:23.257Z,1021.59
2018-02-23T08:20:32.986Z,1021.62
2018-02-23T08:21:42.697Z,1021.61
2018-02-23T08:22:52.686Z,1021.67
2018-02-23T08:24:02.147Z,1021.64
2018-02-23T08:25:11.908Z,1021.66
2018-02-23T08:26:21.854Z,1021.6
2018-02-23T08:27:31.638Z,1021.6
2018-02-23T08:28:41.090Z,1021.63
2018-02-23T08:29:50.800Z,1021.64
2018-02-23T08:31:00.796Z,1021.65
2018-02-23T08:32:10.502Z,1021.66
2018-02-23T08:33:20.224Z,1021.62
2018-02-23T08:34:30.214Z,1021.68
2018-02-23T08:35:39.938Z,1021.67
2018-02-23T08:36:49.891Z,1021.65
2018-02-23T08:37:59.843Z,1021.64
2018-02-23T08:39:09.820Z,1021.62
2018-02-23T08:40:19.827Z,1021.61
2018-02-23T08:41:29.523Z,1021.58
2018-02-23T08:42:39.501Z,1021.55
2018-02-23T08:43:48.688Z,1021.57
2018-02-23T08:44:58.649Z,1021.61
2018-02-23T08:46:08.133Z,1021.66
2018-02-23T08:47:17.958Z,1021.61
2018-02-23T08:48:27.719Z,1021.57
2018-02-23T08:49:37.750Z,1021.57
2018-02-23T08:50:47.251Z,1021.59
2018-02-23T08:51:57.360Z,1021.6
2018-02-23T08:53:07.091Z,1021.62
2018-02-23T08:54:16.325Z,1021.66
2018-02-23T08:55:26.221Z,1021.65
2018-02-23T08:56:35.965Z,1021.67
2018-02-23T08:57:45.967Z,1021.64
2018-02-23T08:58:55.766Z,1021.61
2018-02-23T09:00:05.741Z,1021.63
2018-02-23T09:01:15.202Z,1021.67
2018-02-23T09:02:25.013Z,1021.7
2018-02-23T09:03:34.712Z,1021.67
2018-02-23T09:04:44.541Z,1021.68
2018-02-23T09:05:53.951Z,1021.73
2018-02-23T09:07:03.105Z,1021.74
2018-02-23T09:08:12.766Z,1021.77
2018-02-23T09:09:22.729Z,1021.74
2018-02-23T09:10:32.442Z,1021.76
2018-02-23T09:11:42.349Z,1021.79
2018-02-23T09:12:51.759Z,1021.75
2018-02-23T09:14:01.685Z,1021.79
2018-02-23T09:15:11.654Z,1021.76
2018-02-23T09:16:20.803Z,1021.8
2018-02-23T09:17:30.256Z,1021.79
2018-02-23T09:18:39.744Z,1021.8
2018-02-23T09:19:49.607Z,1021.75
2018-02-23T09:20:59.570Z,1021.72
2018-02-23T09:22:09.024Z,1021.74
2018-02-23T09:23:18.465Z,1021.76
2018-02-23T09:24:27.928Z,1021.77
2018-02-23T09:25:37.969Z,1021.76
2018-02-23T09:26:47.935Z,1021.8
2018-02-23T09:27:57.918Z,1021.75
2018-02-23T09:29:07.645Z,1021.76
2018-02-23T09:30:17.620Z,1021.76
2018-02-23T09:31:27.627Z,1021.79
2018-02-23T09:32:37.643Z,1021.75
2018-02-23T09:33:47.628Z,1021.77
2018-02-23T09:34:57.346Z,1021.76
2018-02-23T09:36:07.079Z,1021.78
2018-02-23T09:37:17.046Z,1021.77
2018-02-23T09:38:26.753Z,1021.79
2018-02-23T09:39:36.195Z,1021.75
2018-02-23T09:40:46.176Z,1021.78
2018-02-23T09:41:55.367Z,1021.82
2018-02-23T09:43:05.655Z,1021.86
2018-02-23T09:44:15.096Z,1021.83
2018-02-23T09:45:24.810Z,1021.82
2018-02-23T09:46:34.787Z,1021.82
2018-02-23T09:47:44.500Z,1021.84
2018-02-23T09:48:54.476Z,1021.81
2018-02-23T09:50:04.205Z,1021.87
2018-02-23T09:51:14.141Z,1021.84
2018-02-23T09:52:23.836Z,1021.76
2018-02-23T09:53:33.536Z,1021.8
2018-02-23T09:54:43.258Z,1021.76
2018-02-23T09:55:52.977Z,1021.75
2018-02-23T09:57:02.753Z,1021.69
2018-02-23T09:58:12.747Z,1021.67
2018-02-23T09:59:22.475Z,1021.68
2018-02-23T10:00:32.456Z,1021.68
2018-02-23T10:01:42.200Z,1021.7
2018-02-23T10:02:51.937Z,1021.74
2018-02-23T10:04:01.650Z,1021.73
2018-02-23T10:05:11.619Z,1021.69
2018-02-23T10:06:21.386Z,1021.73
2018-02-23T10:07:31.351Z,1021.72
2018-02-23T10:08:41.078Z,1021.64
2018-02-23T10:09:51.113Z,1021.74
2018-02-23T10:11:00.323Z,1021.71
2018-02-23T10:12:10.044Z,1021.75
2018-02-23T10:13:20.051Z,1021.71
2018-02-23T10:14:30.032Z,1021.71
2018-02-23T10:15:39.483Z,1021.74
2018-02-23T10:16:49.467Z,1021.73
2018-02-23T10:17:58.645Z,1021.75
2018-02-23T10:19:07.858Z,1021.76
2018-02-23T10:20:17.833Z,1021.78
2018-02-23T10:21:27.818Z,1021.81
2018-02-23T10:22:37.515Z,1021.85
2018-02-23T10:23:47.477Z,1021.82
2018-02-23T10:24:56.918Z,1021.82
2018-02-23T10:26:06.787Z,1021.8
2018-02-23T10:27:16.752Z,1021.81
2018-02-23T10:28:26.482Z,1021.77
2018-02-23T10:29:36.206Z,1021.79
2018-02-23T10:30:45.393Z,1021.8
2018-02-23T10:31:55.367Z,1021.75
2018-02-23T10:33:05.368Z,1021.73
2018-02-23T10:34:15.361Z,1021.7
2018-02-23T10:35:25.088Z,1021.73
2018-02-23T10:36:34.541Z,1021.75
2018-02-23T10:37:44.556Z,1021.67
2018-02-23T10:38:54.030Z,1021.69
2018-02-23T10:40:03.505Z,1021.68
2018-02-23T10:41:13.503Z,1021.72
2018-02-23T10:42:23.229Z,1021.68
2018-02-23T10:43:33.203Z,1021.62
2018-02-23T10:44:42.401Z,1021.68
2018-02-23T10:45:52.113Z,1021.71
2018-02-23T10:47:02.099Z,1021.69
2018-02-23T10:48:12.094Z,1021.68
2018-02-23T10:49:22.087Z,1021.62
2018-02-23T10:50:31.803Z,1021.62
2018-02-23T10:51:41.556Z,1021.62
2018-02-23T10:52:51.069Z,1021.64
2018-02-23T10:54:00.799Z,1021.64
2018-02-23T10:55:10.515Z,1021.64
2018-02-23T10:56:20.240Z,1021.68
2018-02-23T10:57:29.997Z,1021.59
2018-02-23T10:58:39.706Z,1021.61
2018-02-23T10:59:49.681Z,1021.62
2018-02-23T11:00:59.129Z,1021.63
2018-02-23T11:02:08.611Z,1021.61
2018-02-23T11:03:18.605Z,1021.67
2018-02-23T11:04:28.578Z,1021.67
2018-02-23T11:05:38.042Z,1021.61
2018-02-23T11:06:47.758Z,1021.66
2018-02-23T11:07:57.479Z,1021.65
2018-02-23T11:09:07.461Z,1021.62
2018-02-23T11:10:17.175Z,1021.6
2018-02-23T11:11:27.149Z,1021.61
2018-02-23T11:12:36.899Z,1021.64
2018-02-23T11:13:46.632Z,1021.65
2018-02-23T11:14:56.342Z,1021.62
2018-02-23T11:16:06.338Z,1021.62
2018-02-23T11:17:16.061Z,1021.68
2018-02-23T11:18:25.557Z,1021.62
2018-02-23T11:19:35.414Z,1021.6
2018-02-23T11:20:45.388Z,1021.58
2018-02-23T11:21:55.351Z,1021.54
2018-02-23T11:23:05.335Z,1021.54
2018-02-23T11:24:14.543Z,1021.52
2018-02-23T11:25:24.540Z,1021.47
2018-02-23T11:26:34.257Z,1021.53
2018-02-23T11:27:44.248Z,1021.52
2018-02-23T11:28:54.228Z,1021.51
2018-02-23T11:30:03.941Z,1021.51
2018-02-23T11:31:13.420Z,1021.49
2018-02-23T11:32:22.896Z,1021.46
2018-02-23T11:33:32.613Z,1021.45
2018-02-23T11:34:42.594Z,1021.41
2018-02-23T11:35:52.558Z,1021.48
2018-02-23T11:37:01.754Z,1021.43
2018-02-23T11:38:11.738Z,1021.47
2018-02-23T11:39:21.452Z,1021.45
2018-02-23T11:40:31.188Z,1021.42
2018-02-23T11:41:40.903Z,1021.44
2018-02-23T11:42:50.364Z,1021.35
2018-02-23T11:44:00.332Z,1021.41
2018-02-23T11:45:10.301Z,1021.4
2018-02-23T11:46:20.274Z,1021.33
2018-02-23T11:47:30.250Z,1021.36
2018-02-23T11:48:40.227Z,1021.4
2018-02-23T11:49:50.214Z,1021.36
2018-02-23T11:50:59.941Z,1021.36
2018-02-23T11:52:09.663Z,1021.35
2018-02-23T11:53:19.647Z,1021.36
2018-02-23T11:54:29.354Z,1021.32
2018-02-23T11:55:39.058Z,1021.34
2018-02-23T11:56:48.545Z,1021.41
2018-02-23T11:57:58.009Z,1021.37
2018-02-23T11:59:07.746Z,1021.4
2018-02-23T12:00:17.184Z,1021.38
2018-02-23T12:01:27.146Z,1021.38
2018-02-23T12:02:36.581Z,1021.37
2018-02-23T12:03:46.541Z,1021.41
2018-02-23T12:04:56.233Z,1021.39
2018-02-23T12:06:05.937Z,1021.44
2018-02-23T12:07:15.663Z,1021.32
2018-02-23T12:08:25.116Z,1021.34
2018-02-23T12:09:34.838Z,1021.35
2018-02-23T12:10:44.818Z,1021.34
2018-02-23T12:11:54.791Z,1021.39
2018-02-23T12:13:04.538Z,1021.34
2018-02-23T12:14:14.511Z,1021.36
2018-02-23T12:15:23.984Z,1021.37
2018-02-23T12:16:33.740Z,1021.37
2018-02-23T12:17:43.478Z,1021.35
2018-02-23T12:18:52.935Z,1021.36
2018-02-23T12:20:02.872Z,1021.34
2018-02-23T12:21:12.873Z,1021.33
2018-02-23T12:22:23.060Z,1021.34
2018-02-23T12:23:32.789Z,1021.34
2018-02-23T12:24:42.788Z,1021.26
2018-02-23T12:25:52.780Z,1021.27
2018-02-23T12:27:02.243Z,1021.29
2018-02-23T12:28:11.966Z,1021.28
2018-02-23T12:29:21.696Z,1021.29
2018-02-23T12:30:30.646Z,1021.28
2018-02-23T12:31:40.388Z,1021.27
2018-02-23T12:32:50.115Z,1021.28
2018-02-23T12:34:00.102Z,1021.23
2018-02-23T12:35:09.581Z,1021.22
2018-02-23T12:36:19.593Z,1021.2
2018-02-23T12:37:29.588Z,1021.19
2018-02-23T12:38:39.603Z,1021.16
2018-02-23T12:39:49.327Z,1021.16
2018-02-23T12:40:59.307Z,1021.22
2018-02-23T12:42:09.293Z,1021.19
2018-02-23T12:43:19.275Z,1021.21
2018-02-23T12:44:29.269Z,1021.2
2018-02-23T12:45:39.360Z,1021.21
2018-02-23T12:46:49.035Z,1021.15
2018-02-23T12:47:58.722Z,1021.17
2018-02-23T12:49:08.810Z,1021.18
2018-02-23T12:50:18.844Z,1021.15
2018-02-23T12:51:28.546Z,1021.13
2018-02-23T12:52:38.528Z,1021.18
2018-02-23T12:53:48.512Z,1021.18
2018-02-23T12:54:58.474Z,1021.18
2018-02-23T12:56:07.675Z,1021.15
2018-02-23T12:57:17.401Z,1021.16
2018-02-23T12:58:27.398Z,1021.17
2018-02-23T12:59:37.366Z,1021.19
2018-02-23T13:00:47.413Z,1021.16
2018-02-23T13:01:56.610Z,1021.15
2018-02-23T13:03:06.584Z,1021.22
2018-02-23T13:04:16.558Z,1021.19
2018-02-23T13:05:26.539Z,1021.17
2018-02-23T13:06:36.268Z,1021.14
2018-02-23T13:07:46.038Z,1021.15
2018-02-23T13:08:55.785Z,1021.1
2018-02-23T13:10:06.039Z,1021.16
2018-02-23T13:11:16.026Z,1021.15
2018-02-23T13:12:26.029Z,1021.11
2018-02-23T13:13:36.013Z,1021.12
2018-02-23T13:14:46.020Z,1021.09
2018-02-23T13:15:56.025Z,1021.11
2018-02-23T13:17:05.764Z,1021.09
2018-02-23T13:18:15.209Z,1021.13
2018-02-23T13:19:25.228Z,1021.04
2018-02-23T13:20:35.223Z,1021.05
2018-02-23T13:21:44.949Z,1021.06
2018-02-23T13:22:54.947Z,1021.05
2018-02-23T13:24:04.417Z,1021.03
2018-02-23T13:25:14.170Z,1021.04
2018-02-23T13:26:23.956Z,1021.06
2018-02-23T13:27:33.163Z,1021.04
2018-02-23T13:28:43.188Z,1021.11
2018-02-23T13:29:53.177Z,1021.03
2018-02-23T13:31:03.170Z,1021.03
2018-02-23T13:32:13.000Z,1021.05
2018-02-23T13:33:22.474Z,1021.06
2018-02-23T13:34:32.489Z,1021.03
2018-02-23T13:35:42.470Z,1021.04
2018-02-23T13:36:52.256Z,1021.07
2018-02-23T13:38:01.712Z,1021.04
2018-02-23T13:39:11.513Z,1021.06
2018-02-23T13:40:21.522Z,1021.08
2018-02-23T13:41:31.520Z,1021.05
2018-02-23T13:42:41.265Z,1021.08
2018-02-23T13:43:50.979Z,1021.04
2018-02-23T13:45:00.203Z,1021.09
2018-02-23T13:46:09.928Z,1021.01
2018-02-23T13:47:19.661Z,1021.03
2018-02-23T13:48:29.387Z,1021.04
2018-02-23T13:49:39.119Z,1021.01
2018-02-23T13:50:48.596Z,1021.03
2018-02-23T13:51:58.606Z,1021.02
2018-02-23T13:53:08.637Z,1021
2018-02-23T13:54:22.819Z,1021.01
2018-02-23T13:55:32.797Z,1021.03
2018-02-23T13:56:42.245Z,1020.98
2018-02-23T13:57:52.249Z,1021.02
2018-02-23T13:59:02.252Z,1021.03
2018-02-23T14:00:12.250Z,1021.02
2018-02-23T14:01:22.246Z,1021.05
2018-02-23T14:02:32.224Z,1020.99
2018-02-23T14:03:42.220Z,1021.02
2018-02-23T14:04:52.193Z,1021.02
2018-02-23T14:06:01.920Z,1021.03
2018-02-23T14:07:11.383Z,1021.03